sensor_id;sensor_type;location;lat;lon;timestamp;temperature;humidity
24091;DHT22;12272;52.426;17.100;2022-09-09T00:03:24;21.70;99.90
24091;DHT22;12272;52.426;17.100;2022-09-09T00:13:54;21.60;99.90
24091;DHT22;12272;52.426;17.100;2022-09-09T00:35:35;21.70;99.90
24091;DHT22;12272;52.426;17.100;2022-09-09T00:41:29;21.70;99.90
24091;DHT22;12272;52.426;17.100;2022-09-09T00:57:23;21.70;99.90
24091;DHT22;12272;52.426;17.100;2022-09-09T01:07:36;21.70;99.90
24091;DHT22;12272;52.426;17.100;2022-09-09T01:12:40;21.60;99.90
24091;DHT22;12272;52.426;17.100;2022-09-09T01:29:12;21.60;99.90
24091;DHT22;12272;52.426;17.100;2022-09-09T01:34:16;21.60;99.90
24091;DHT22;12272;52.426;17.100;2022-09-09T01:39:20;21.60;99.90
24091;DHT22;12272;52.426;17.100;2022-09-09T01:44:31;21.60;99.90
24091;DHT22;12272;52.426;17.100;2022-09-09T01:49:35;21.60;99.90
24091;DHT22;12272;52.426;17.100;2022-09-09T01:54:45;21.60;99.90
24091;DHT22;12272;52.426;17.100;2022-09-09T02:11:11;21.50;99.90
24091;DHT22;12272;52.426;17.100;2022-09-09T02:16:44;21.50;99.90
24091;DHT22;12272;52.426;17.100;2022-09-09T02:21:51;21.50;99.90
24091;DHT22;12272;52.426;17.100;2022-09-09T02:26:57;21.50;99.90
24091;DHT22;12272;52.426;17.100;2022-09-09T02:32:03;21.40;99.90
24091;DHT22;12272;52.426;17.100;2022-09-09T02:37:13;21.50;99.90
24091;DHT22;12272;52.426;17.100;2022-09-09T02:42:21;21.40;99.90
24091;DHT22;12272;52.426;17.100;2022-09-09T02:47:47;21.40;99.90
24091;DHT22;12272;52.426;17.100;2022-09-09T02:53:06;21.40;99.90
24091;DHT22;12272;52.426;17.100;2022-09-09T02:58:15;21.40;99.90
24091;DHT22;12272;52.426;17.100;2022-09-09T03:03:27;21.30;99.90
24091;DHT22;12272;52.426;17.100;2022-09-09T03:08:31;21.30;99.90
24091;DHT22;12272;52.426;17.100;2022-09-09T03:13:35;21.30;99.90
24091;DHT22;12272;52.426;17.100;2022-09-09T03:18:37;21.30;99.90
24091;DHT22;12272;52.426;17.100;2022-09-09T03:23:40;21.00;99.90
24091;DHT22;12272;52.426;17.100;2022-09-09T03:28:43;20.80;99.90
24091;DHT22;12272;52.426;17.100;2022-09-09T03:33:50;20.70;99.90
24091;DHT22;12272;52.426;17.100;2022-09-09T03:38:54;20.70;99.90
24091;DHT22;12272;52.426;17.100;2022-09-09T03:44:00;21.00;99.90
24091;DHT22;12272;52.426;17.100;2022-09-09T03:49:07;21.10;99.90
24091;DHT22;12272;52.426;17.100;2022-09-09T03:54:10;21.20;99.90
24091;DHT22;12272;52.426;17.100;2022-09-09T03:59:13;21.10;99.90
24091;DHT22;12272;52.426;17.100;2022-09-09T04:04:17;21.20;99.90
24091;DHT22;12272;52.426;17.100;2022-09-09T04:09:22;21.20;99.90
24091;DHT22;12272;52.426;17.100;2022-09-09T04:14:26;21.20;99.90
24091;DHT22;12272;52.426;17.100;2022-09-09T04:19:32;21.00;99.90
24091;DHT22;12272;52.426;17.100;2022-09-09T04:24:36;20.70;99.90
24091;DHT22;12272;52.426;17.100;2022-09-09T04:29:39;21.00;99.90
24091;DHT22;12272;52.426;17.100;2022-09-09T04:34:43;21.10;99.90
24091;DHT22;12272;52.426;17.100;2022-09-09T04:39:47;21.00;99.90
24091;DHT22;12272;52.426;17.100;2022-09-09T04:44:52;21.00;99.90
24091;DHT22;12272;52.426;17.100;2022-09-09T04:49:58;20.90;99.90
24091;DHT22;12272;52.426;17.100;2022-09-09T04:55:01;20.80;99.90
24091;DHT22;12272;52.426;17.100;2022-09-09T05:00:05;20.70;99.90
24091;DHT22;12272;52.426;17.100;2022-09-09T05:05:12;20.60;99.90
24091;DHT22;12272;52.426;17.100;2022-09-09T05:10:15;20.80;99.90
24091;DHT22;12272;52.426;17.100;2022-09-09T05:15:21;21.00;99.90
24091;DHT22;12272;52.426;17.100;2022-09-09T05:20:24;20.90;99.90
24091;DHT22;12272;52.426;17.100;2022-09-09T05:25:26;19.90;99.90
24091;DHT22;12272;52.426;17.100;2022-09-09T05:30:30;20.30;99.90
24091;DHT22;12272;52.426;17.100;2022-09-09T05:35:36;20.50;99.90
24091;DHT22;12272;52.426;17.100;2022-09-09T05:40:47;20.70;99.90
24091;DHT22;12272;52.426;17.100;2022-09-09T05:46:00;20.60;99.90
24091;DHT22;12272;52.426;17.100;2022-09-09T05:51:08;20.90;99.90
24091;DHT22;12272;52.426;17.100;2022-09-09T05:56:23;21.10;99.90
24091;DHT22;12272;52.426;17.100;2022-09-09T06:01:30;18.00;99.90
24091;DHT22;12272;52.426;17.100;2022-09-09T06:06:36;20.20;99.90
24091;DHT22;12272;52.426;17.100;2022-09-09T06:11:44;20.70;99.90
24091;DHT22;12272;52.426;17.100;2022-09-09T06:16:49;20.80;99.90
24091;DHT22;12272;52.426;17.100;2022-09-09T06:21:56;20.90;99.90
24091;DHT22;12272;52.426;17.100;2022-09-09T06:26:59;17.00;99.90
24091;DHT22;12272;52.426;17.100;2022-09-09T06:32:06;16.10;99.90
24091;DHT22;12272;52.426;17.100;2022-09-09T06:37:10;15.70;99.90
24091;DHT22;12272;52.426;17.100;2022-09-09T06:42:19;15.90;99.90
24091;DHT22;12272;52.426;17.100;2022-09-09T06:47:25;19.00;99.90
24091;DHT22;12272;52.426;17.100;2022-09-09T06:52:29;19.90;99.90
24091;DHT22;12272;52.426;17.100;2022-09-09T06:57:32;20.40;99.90
24091;DHT22;12272;52.426;17.100;2022-09-09T07:02:41;20.10;99.90
24091;DHT22;12272;52.426;17.100;2022-09-09T07:07:46;20.80;99.90
24091;DHT22;12272;52.426;17.100;2022-09-09T07:12:52;20.90;99.90
24091;DHT22;12272;52.426;17.100;2022-09-09T07:18:01;21.00;99.90
24091;DHT22;12272;52.426;17.100;2022-09-09T07:23:04;21.00;99.90
24091;DHT22;12272;52.426;17.100;2022-09-09T07:28:07;21.30;99.90
24091;DHT22;12272;52.426;17.100;2022-09-09T07:33:10;21.40;99.90
24091;DHT22;12272;52.426;17.100;2022-09-09T07:38:14;21.30;99.90
24091;DHT22;12272;52.426;17.100;2022-09-09T07:43:18;21.00;99.90
24091;DHT22;12272;52.426;17.100;2022-09-09T07:48:20;21.30;99.90
24091;DHT22;12272;52.426;17.100;2022-09-09T07:53:23;21.30;99.90
24091;DHT22;12272;52.426;17.100;2022-09-09T07:58:26;21.40;99.90
24091;DHT22;12272;52.426;17.100;2022-09-09T08:03:28;21.40;99.90
24091;DHT22;12272;52.426;17.100;2022-09-09T08:08:31;21.50;99.90
24091;DHT22;12272;52.426;17.100;2022-09-09T08:13:36;21.40;99.90
24091;DHT22;12272;52.426;17.100;2022-09-09T08:18:39;21.40;99.90
24091;DHT22;12272;52.426;17.100;2022-09-09T08:23:44;21.40;99.90
24091;DHT22;12272;52.426;17.100;2022-09-09T08:28:49;21.40;99.90
24091;DHT22;12272;52.426;17.100;2022-09-09T08:33:55;21.20;99.90
24091;DHT22;12272;52.426;17.100;2022-09-09T08:38:59;21.50;99.90
24091;DHT22;12272;52.426;17.100;2022-09-09T08:44:07;21.50;99.90
24091;DHT22;12272;52.426;17.100;2022-09-09T08:54:35;21.60;99.90
24091;DHT22;12272;52.426;17.100;2022-09-09T08:59:55;21.20;99.90
24091;DHT22;12272;52.426;17.100;2022-09-09T09:15:54;21.40;99.90
24091;DHT22;12272;52.426;17.100;2022-09-09T09:26:10;21.40;99.90
24091;DHT22;12272;52.426;17.100;2022-09-09T09:31:18;21.40;99.90
24091;DHT22;12272;52.426;17.100;2022-09-09T09:36:35;21.50;99.90
24091;DHT22;12272;52.426;17.100;2022-09-09T09:41:42;21.80;99.90
24091;DHT22;12272;52.426;17.100;2022-09-09T09:46:47;21.90;99.90
24091;DHT22;12272;52.426;17.100;2022-09-09T09:51:50;21.50;99.90
24091;DHT22;12272;52.426;17.100;2022-09-09T09:56:55;21.50;99.90
24091;DHT22;12272;52.426;17.100;2022-09-09T10:07:20;21.70;99.90
24091;DHT22;12272;52.426;17.100;2022-09-09T10:12:39;22.10;99.90
24091;DHT22;12272;52.426;17.100;2022-09-09T10:18:08;21.80;99.90
24091;DHT22;12272;52.426;17.100;2022-09-09T10:23:42;21.90;99.90
24091;DHT22;12272;52.426;17.100;2022-09-09T10:39:39;21.90;99.90
24091;DHT22;12272;52.426;17.100;2022-09-09T11:05:43;22.80;99.90
24091;DHT22;12272;52.426;17.100;2022-09-09T11:11:03;22.70;99.90
24091;DHT22;12272;52.426;17.100;2022-09-09T11:16:26;22.90;99.90
24091;DHT22;12272;52.426;17.100;2022-09-09T11:21:34;23.00;99.90
24091;DHT22;12272;52.426;17.100;2022-09-09T11:26:41;22.60;99.90
24091;DHT22;12272;52.426;17.100;2022-09-09T11:37:44;22.90;99.90
24091;DHT22;12272;52.426;17.100;2022-09-09T11:53:32;23.40;99.90
24091;DHT22;12272;52.426;17.100;2022-09-09T11:58:42;23.60;99.90
24091;DHT22;12272;52.426;17.100;2022-09-09T12:03:49;23.50;99.90
24091;DHT22;12272;52.426;17.100;2022-09-09T12:09:22;23.40;99.90
24091;DHT22;12272;52.426;17.100;2022-09-09T12:19:45;23.40;99.90
24091;DHT22;12272;52.426;17.100;2022-09-09T12:25:28;23.60;99.90
24091;DHT22;12272;52.426;17.100;2022-09-09T12:30:37;23.50;99.90
24091;DHT22;12272;52.426;17.100;2022-09-09T12:35:45;23.30;99.90
24091;DHT22;12272;52.426;17.100;2022-09-09T12:40:55;23.60;99.90
24091;DHT22;12272;52.426;17.100;2022-09-09T12:46:06;23.20;99.90
24091;DHT22;12272;52.426;17.100;2022-09-09T12:51:37;23.40;99.90
24091;DHT22;12272;52.426;17.100;2022-09-09T12:56:44;23.20;99.90
24091;DHT22;12272;52.426;17.100;2022-09-09T13:01:55;24.10;99.90
24091;DHT22;12272;52.426;17.100;2022-09-09T13:07:08;24.30;99.90
24091;DHT22;12272;52.426;17.100;2022-09-09T13:12:19;24.50;99.90
24091;DHT22;12272;52.426;17.100;2022-09-09T13:17:24;24.40;99.90
24091;DHT22;12272;52.426;17.100;2022-09-09T13:22:35;24.60;99.90
24091;DHT22;12272;52.426;17.100;2022-09-09T13:27:40;25.00;99.90
24091;DHT22;12272;52.426;17.100;2022-09-09T13:32:43;25.10;99.90
24091;DHT22;12272;52.426;17.100;2022-09-09T13:37:46;24.90;99.90
24091;DHT22;12272;52.426;17.100;2022-09-09T13:42:52;25.20;99.90
24091;DHT22;12272;52.426;17.100;2022-09-09T13:47:56;24.40;99.90
24091;DHT22;12272;52.426;17.100;2022-09-09T13:52:59;23.80;99.90
24091;DHT22;12272;52.426;17.100;2022-09-09T14:03:05;23.00;99.90
24091;DHT22;12272;52.426;17.100;2022-09-09T14:08:21;23.30;99.90
24091;DHT22;12272;52.426;17.100;2022-09-09T14:13:24;24.30;99.90
24091;DHT22;12272;52.426;17.100;2022-09-09T14:18:27;24.70;99.90
24091;DHT22;12272;52.426;17.100;2022-09-09T14:23:29;24.50;99.90
24091;DHT22;12272;52.426;17.100;2022-09-09T14:28:33;24.80;99.90
24091;DHT22;12272;52.426;17.100;2022-09-09T14:33:55;25.10;99.90
24091;DHT22;12272;52.426;17.100;2022-09-09T14:38:58;25.00;99.90
24091;DHT22;12272;52.426;17.100;2022-09-09T14:44:00;24.80;99.90
24091;DHT22;12272;52.426;17.100;2022-09-09T14:49:03;24.90;99.90
24091;DHT22;12272;52.426;17.100;2022-09-09T14:54:06;25.60;99.90
24091;DHT22;12272;52.426;17.100;2022-09-09T14:59:09;25.40;99.90
24091;DHT22;12272;52.426;17.100;2022-09-09T15:04:12;25.00;99.90
24091;DHT22;12272;52.426;17.100;2022-09-09T15:09:16;24.70;99.90
24091;DHT22;12272;52.426;17.100;2022-09-09T15:14:18;24.90;99.90
24091;DHT22;12272;52.426;17.100;2022-09-09T15:19:26;25.00;99.90
24091;DHT22;12272;52.426;17.100;2022-09-09T15:24:29;25.00;99.90
24091;DHT22;12272;52.426;17.100;2022-09-09T15:29:31;25.00;99.90
24091;DHT22;12272;52.426;17.100;2022-09-09T15:34:35;24.70;99.90
24091;DHT22;12272;52.426;17.100;2022-09-09T15:39:37;24.50;99.90
24091;DHT22;12272;52.426;17.100;2022-09-09T15:44:41;23.60;99.90
24091;DHT22;12272;52.426;17.100;2022-09-09T15:49:44;23.60;99.90
24091;DHT22;12272;52.426;17.100;2022-09-09T15:54:47;22.90;99.90
24091;DHT22;12272;52.426;17.100;2022-09-09T15:59:49;22.90;99.90
24091;DHT22;12272;52.426;17.100;2022-09-09T16:04:52;23.20;99.90
24091;DHT22;12272;52.426;17.100;2022-09-09T16:09:54;23.10;99.90
24091;DHT22;12272;52.426;17.100;2022-09-09T16:14:56;23.00;99.90
24091;DHT22;12272;52.426;17.100;2022-09-09T16:19:59;22.60;99.90
24091;DHT22;12272;52.426;17.100;2022-09-09T16:25:01;22.50;99.90
24091;DHT22;12272;52.426;17.100;2022-09-09T16:30:04;22.50;99.90
24091;DHT22;12272;52.426;17.100;2022-09-09T16:35:07;22.80;99.90
24091;DHT22;12272;52.426;17.100;2022-09-09T16:40:09;22.60;99.90
24091;DHT22;12272;52.426;17.100;2022-09-09T16:45:12;22.40;99.90
24091;DHT22;12272;52.426;17.100;2022-09-09T16:50:15;22.60;99.90
24091;DHT22;12272;52.426;17.100;2022-09-09T16:55:17;22.70;99.90
24091;DHT22;12272;52.426;17.100;2022-09-09T17:00:22;22.40;99.90
24091;DHT22;12272;52.426;17.100;2022-09-09T17:05:25;22.10;99.90
24091;DHT22;12272;52.426;17.100;2022-09-09T17:10:27;22.10;99.90
24091;DHT22;12272;52.426;17.100;2022-09-09T17:15:30;22.10;99.90
24091;DHT22;12272;52.426;17.100;2022-09-09T17:20:36;21.90;99.90
24091;DHT22;12272;52.426;17.100;2022-09-09T17:30:59;20.40;99.90
24091;DHT22;12272;52.426;17.100;2022-09-09T17:36:20;20.70;99.90
24091;DHT22;12272;52.426;17.100;2022-09-09T17:41:26;21.70;99.90
24091;DHT22;12272;52.426;17.100;2022-09-09T17:46:32;22.10;99.90
24091;DHT22;12272;52.426;17.100;2022-09-09T17:51:37;22.30;99.90
24091;DHT22;12272;52.426;17.100;2022-09-09T17:56:40;22.50;99.90
24091;DHT22;12272;52.426;17.100;2022-09-09T18:01:45;22.40;99.90
24091;DHT22;12272;52.426;17.100;2022-09-09T18:06:51;22.50;99.90
24091;DHT22;12272;52.426;17.100;2022-09-09T18:11:55;22.50;99.90
24091;DHT22;12272;52.426;17.100;2022-09-09T18:17:00;22.50;99.90
24091;DHT22;12272;52.426;17.100;2022-09-09T18:22:04;22.60;99.90
24091;DHT22;12272;52.426;17.100;2022-09-09T18:27:07;22.60;99.90
24091;DHT22;12272;52.426;17.100;2022-09-09T18:32:10;22.60;99.90
24091;DHT22;12272;52.426;17.100;2022-09-09T18:37:12;22.50;99.90
24091;DHT22;12272;52.426;17.100;2022-09-09T18:42:16;22.50;99.90
24091;DHT22;12272;52.426;17.100;2022-09-09T18:47:18;22.50;99.90
24091;DHT22;12272;52.426;17.100;2022-09-09T18:52:21;22.50;99.90
24091;DHT22;12272;52.426;17.100;2022-09-09T18:57:23;22.50;99.90
24091;DHT22;12272;52.426;17.100;2022-09-09T19:02:26;22.50;99.90
24091;DHT22;12272;52.426;17.100;2022-09-09T19:07:28;22.50;99.90
24091;DHT22;12272;52.426;17.100;2022-09-09T19:12:31;22.50;99.90
24091;DHT22;12272;52.426;17.100;2022-09-09T19:17:33;22.40;99.90
24091;DHT22;12272;52.426;17.100;2022-09-09T19:22:37;22.30;99.90
24091;DHT22;12272;52.426;17.100;2022-09-09T19:27:40;22.40;99.90
24091;DHT22;12272;52.426;17.100;2022-09-09T19:32:44;22.40;99.90
24091;DHT22;12272;52.426;17.100;2022-09-09T19:37:57;22.30;99.90
24091;DHT22;12272;52.426;17.100;2022-09-09T19:43:00;22.40;99.90
24091;DHT22;12272;52.426;17.100;2022-09-09T19:48:02;22.30;99.90
24091;DHT22;12272;52.426;17.100;2022-09-09T19:53:07;22.40;99.90
24091;DHT22;12272;52.426;17.100;2022-09-09T19:58:10;22.40;99.90
24091;DHT22;12272;52.426;17.100;2022-09-09T20:03:12;22.40;99.90
24091;DHT22;12272;52.426;17.100;2022-09-09T20:08:21;22.40;99.90
24091;DHT22;12272;52.426;17.100;2022-09-09T20:13:23;22.40;99.90
24091;DHT22;12272;52.426;17.100;2022-09-09T20:18:27;22.40;99.90
24091;DHT22;12272;52.426;17.100;2022-09-09T20:23:32;22.30;99.90
24091;DHT22;12272;52.426;17.100;2022-09-09T20:28:36;22.30;99.90
24091;DHT22;12272;52.426;17.100;2022-09-09T20:33:40;22.30;99.90
24091;DHT22;12272;52.426;17.100;2022-09-09T20:38:48;22.30;99.90
24091;DHT22;12272;52.426;17.100;2022-09-09T20:43:53;22.20;99.90
24091;DHT22;12272;52.426;17.100;2022-09-09T20:48:56;22.30;99.90
24091;DHT22;12272;52.426;17.100;2022-09-09T20:54:23;22.30;99.90
24091;DHT22;12272;52.426;17.100;2022-09-09T20:59:28;22.30;99.90
24091;DHT22;12272;52.426;17.100;2022-09-09T21:04:31;16.60;99.90
24091;DHT22;12272;52.426;17.100;2022-09-09T21:09:34;18.70;99.90
24091;DHT22;12272;52.426;17.100;2022-09-09T21:14:36;21.00;99.90
24091;DHT22;12272;52.426;17.100;2022-09-09T21:19:39;21.70;99.90
24091;DHT22;12272;52.426;17.100;2022-09-09T21:24:42;21.90;99.90
24091;DHT22;12272;52.426;17.100;2022-09-09T21:29:44;22.00;99.90
24091;DHT22;12272;52.426;17.100;2022-09-09T21:34:48;22.00;99.90
24091;DHT22;12272;52.426;17.100;2022-09-09T21:39:51;22.10;99.90
24091;DHT22;12272;52.426;17.100;2022-09-09T21:44:53;22.10;99.90
24091;DHT22;12272;52.426;17.100;2022-09-09T21:49:56;22.10;99.90
24091;DHT22;12272;52.426;17.100;2022-09-09T21:54:59;22.10;99.90
24091;DHT22;12272;52.426;17.100;2022-09-09T22:00:04;22.10;99.90
24091;DHT22;12272;52.426;17.100;2022-09-09T22:05:13;22.10;99.90
24091;DHT22;12272;52.426;17.100;2022-09-09T22:10:16;22.10;99.90
24091;DHT22;12272;52.426;17.100;2022-09-09T22:15:20;22.10;99.90
24091;DHT22;12272;52.426;17.100;2022-09-09T22:20:23;22.10;99.90
24091;DHT22;12272;52.426;17.100;2022-09-09T22:25:27;22.10;99.90
24091;DHT22;12272;52.426;17.100;2022-09-09T22:30:29;22.20;99.90
24091;DHT22;12272;52.426;17.100;2022-09-09T22:35:40;22.10;99.90
24091;DHT22;12272;52.426;17.100;2022-09-09T22:40:45;22.10;99.90
24091;DHT22;12272;52.426;17.100;2022-09-09T22:45:49;22.10;99.90
24091;DHT22;12272;52.426;17.100;2022-09-09T22:50:52;22.10;99.90
24091;DHT22;12272;52.426;17.100;2022-09-09T22:55:56;22.10;99.90
24091;DHT22;12272;52.426;17.100;2022-09-09T23:01:08;22.10;99.90
24091;DHT22;12272;52.426;17.100;2022-09-09T23:06:14;22.10;99.90
24091;DHT22;12272;52.426;17.100;2022-09-09T23:11:26;22.10;99.90
24091;DHT22;12272;52.426;17.100;2022-09-09T23:16:35;22.10;99.90
24091;DHT22;12272;52.426;17.100;2022-09-09T23:21:40;22.10;99.90
24091;DHT22;12272;52.426;17.100;2022-09-09T23:26:43;22.10;99.90
24091;DHT22;12272;52.426;17.100;2022-09-09T23:31:46;21.80;99.90
24091;DHT22;12272;52.426;17.100;2022-09-09T23:36:49;22.00;99.90
24091;DHT22;12272;52.426;17.100;2022-09-09T23:41:51;22.00;99.90
24091;DHT22;12272;52.426;17.100;2022-09-09T23:46:53;22.00;99.90
24091;DHT22;12272;52.426;17.100;2022-09-09T23:51:56;22.00;99.90
24091;DHT22;12272;52.426;17.100;2022-09-09T23:56:59;22.00;99.90
